Lacon, IL

6:48 AM CST on December 04, 2016 (GMT -0600)
Lacon

Weather History for KC75 - December, 2012

Change the Weather History Date:

Monday, December 10, 2012

  Actual Average (KPIA) Record (KPIA)
Temperature  
Mean Temperature 34 °F 30 °F  
Max Temperature 36 °F 37 °F 64 °F (1889)
Min Temperature 32 °F 22 °F -10 °F (1977)
Degree Days  
Heating Degree Days 31 35  
Month to date heating degree days 333  
Since 1 July heating degree days 1481  
Cooling Degree Days 0 0  
Month to date cooling degree days 0  
Year to date cooling degree days 1039  
Moisture  
Dew Point 27 °F    
Average Humidity 78    
Maximum Humidity 86    
Minimum Humidity 74    
Precipitation  
Precipitation 0.00 in 0.09 in 1.48 in (1971)
Month to date precipitation 0.91  
Year to date precipitation 34.98  
Snow  
Snow 0.00 in 0.20 in 5.10 in (1989)
Month to date snowfall 1.9  
Since 1 July snowfall 3.0  
Snow Depth -    
Sea Level Pressure  
Sea Level Pressure 29.89 in    
Wind  
Wind Speed 10 mph (West)    
Max Wind Speed 15 mph    
Max Gust Speed 23 mph    
Visibility 9 miles    
Events      
T = Trace of Precipitation, MM = Missing Value Source: NWS Daily Summary

Daily Weather History Graph

Daily Weather History Graph

Search for Another Location

Airport or City:

Trip Planner

Search our weather history database for the weather conditions in past years. The results will help you decide how hot, cold, wet, or windy it might be!

Date:

Astronomy

Dec. 10, 2012 Rise Set
Actual Time 7:12 AM CST 4:29 PM CST
Civil Twilight 6:40 AM CST 5:00 PM CST
Nautical Twilight 6:06 AM CST 5:34 PM CST
Astronomical Twilight 5:33 AM CST 6:08 PM CST
Moon 3:54 AM CST (12/10) 2:19 PM CST (12/10)
Length of Visible Light 10h 19m
Length of Day
9h 17m
Waning Crescent, 10% of the Moon is Illuminated
Dec 10
Waning Crescent
Dec 13
New
Dec 19
First Quarter
Dec 28
Full
Jan 4
Last Quarter

Hourly Weather History & Observations

Time (CST) Temp. Windchill Dew Point Humidity Pressure Visibility Wind Dir Wind Speed Gust Speed Precip Events Conditions
12:15 AM 36.9 °F 27.8 °F 30.4 °F 77% 29.82 in 10.0 mi WSW 15.0 mph 18.4 mph N/A   Unknown
12:35 AM 36.5 °F 28.2 °F 30.0 °F 77% 29.82 in 10.0 mi West 12.7 mph 19.6 mph N/A   Unknown
12:55 AM 36.1 °F 28.7 °F 29.3 °F 76% 29.81 in 10.0 mi West 10.4 mph 19.6 mph N/A   Unknown
1:15 AM 35.6 °F 26.2 °F 28.9 °F 77% 29.82 in 10.0 mi West 15.0 mph 20.7 mph N/A   Unknown
1:35 AM 34.9 °F 25.3 °F 28.2 °F 77% 29.81 in 10.0 mi West 15.0 mph 23.0 mph N/A   Unknown
1:55 AM 34.3 °F 25.9 °F 28.0 °F 78% 29.82 in 10.0 mi WSW 11.5 mph 19.6 mph N/A   Unknown
2:15 AM 34.0 °F 28.0 °F 27.7 °F 78% 29.83 in 10.0 mi West 6.9 mph 16.1 mph N/A   Unknown
2:35 AM 33.8 °F 25.8 °F 28.4 °F 81% 29.83 in 10.0 mi West 10.4 mph 18.4 mph N/A   Overcast
2:55 AM 33.6 °F 25.0 °F 27.3 °F 78% 29.82 in 10.0 mi WSW 11.5 mph 16.1 mph N/A   Overcast
3:15 AM 33.1 °F 23.4 °F 26.4 °F 77% 29.82 in 10.0 mi West 13.8 mph 19.6 mph N/A   Overcast
3:35 AM 33.1 °F 23.9 °F 26.6 °F 77% 29.81 in 10.0 mi WSW 12.7 mph 20.7 mph N/A   Overcast
3:55 AM 32.9 °F 22.8 °F 26.6 °F 78% 29.82 in 10.0 mi WSW 15.0 mph 19.6 mph N/A   Overcast
4:15 AM 32.9 °F 23.7 °F 26.6 °F 78% 29.82 in 10.0 mi WSW 12.7 mph 21.9 mph N/A   Overcast
4:35 AM 32.9 °F 24.7 °F 27.0 °F 79% 29.81 in 10.0 mi WSW 10.4 mph 19.6 mph N/A   Overcast
4:55 AM 32.5 °F 24.2 °F 26.6 °F 79% 29.82 in 10.0 mi West 10.4 mph 19.6 mph N/A   Overcast
5:15 AM 32.4 °F 22.5 °F 26.6 °F 79% 29.82 in 10.0 mi West 13.8 mph 19.6 mph N/A   Overcast
5:35 AM 32.0 °F 23.0 °F 26.2 °F 79% 29.82 in 10.0 mi West 11.5 mph 20.7 mph N/A   Overcast
5:55 AM 32.0 °F 22.5 °F 26.6 °F 80% 29.82 in 10.0 mi WSW 12.7 mph 19.6 mph N/A   Overcast
6:15 AM 32.0 °F 24.2 °F 25.7 °F 78% 29.83 in 10.0 mi WSW 9.2 mph 19.6 mph N/A   Overcast
6:35 AM 32.0 °F 24.8 °F 26.2 °F 79% 29.83 in 10.0 mi West 8.1 mph 16.1 mph N/A   Overcast
6:55 AM 32.0 °F 26.4 °F 27.1 °F 82% 29.83 in 7.0 mi West 5.8 mph - N/A   Overcast
7:15 AM 32.0 °F 23.6 °F 27.5 °F 83% 29.84 in 7.0 mi West 10.4 mph - N/A   Overcast
7:35 AM 32.0 °F 24.8 °F 28.0 °F 85% 29.84 in 5.0 mi WSW 8.1 mph - N/A   Overcast
7:55 AM 32.0 °F 25.6 °F 28.2 °F 86% 29.84 in 5.0 mi West 6.9 mph 16.1 mph N/A   Overcast
8:15 AM 32.2 °F 23.8 °F 27.9 °F 84% 29.86 in 5.0 mi West 10.4 mph - N/A   Overcast
8:35 AM 32.5 °F 25.5 °F 27.9 °F 83% 29.86 in 5.0 mi West 8.1 mph 17.3 mph N/A   Haze
8:55 AM 32.9 °F 25.9 °F 28.0 °F 82% 29.86 in 7.0 mi WSW 8.1 mph 17.3 mph N/A   Overcast
9:15 AM 33.1 °F 24.9 °F 28.0 °F 82% 29.87 in 7.0 mi West 10.4 mph - N/A   Overcast
9:35 AM 33.3 °F 24.6 °F 28.0 °F 81% 29.88 in 7.0 mi West 11.5 mph 17.3 mph N/A   Overcast
9:55 AM 33.6 °F 25.0 °F 28.4 °F 81% 29.88 in 7.0 mi WSW 11.5 mph 18.4 mph N/A   Overcast
10:15 AM 33.8 °F 25.8 °F 28.4 °F 81% 29.89 in 7.0 mi West 10.4 mph - N/A   Overcast
10:35 AM 33.8 °F 27.0 °F 28.6 °F 81% 29.88 in 7.0 mi WSW 8.1 mph 16.1 mph N/A   Overcast
10:55 AM 34.0 °F 28.8 °F 28.9 °F 82% 29.88 in 7.0 mi West 5.8 mph - N/A   Overcast
11:15 AM 34.0 °F 26.6 °F 29.1 °F 82% 29.87 in 10.0 mi West 9.2 mph 16.1 mph N/A   Overcast
11:35 AM 33.8 °F 25.8 °F 28.9 °F 82% 29.87 in 10.0 mi West 10.4 mph 16.1 mph N/A   Overcast
11:55 AM 33.8 °F 26.4 °F 28.4 °F 81% 29.87 in 10.0 mi West 9.2 mph 17.3 mph N/A   Overcast
12:15 PM 33.8 °F 27.7 °F 28.2 °F 80% 29.87 in 10.0 mi West 6.9 mph 16.1 mph N/A   Overcast
12:35 PM 33.4 °F 26.6 °F 27.9 °F 80% 29.86 in 10.0 mi WSW 8.1 mph - N/A   Overcast
12:55 PM 33.3 °F 26.4 °F 27.7 °F 80% 29.86 in 10.0 mi WSW 8.1 mph - N/A   Overcast
1:15 PM 33.3 °F 26.4 °F 27.5 °F 79% 29.86 in 10.0 mi West 8.1 mph - N/A   Overcast
1:35 PM 33.4 °F 27.3 °F 27.5 °F 79% 29.86 in 10.0 mi West 6.9 mph - N/A   Overcast
1:55 PM 33.8 °F 28.6 °F 27.1 °F 77% 29.87 in 10.0 mi West 5.8 mph - N/A   Overcast
2:15 PM 33.8 °F 27.0 °F 27.1 °F 77% 29.88 in 10.0 mi WSW 8.1 mph - N/A   Overcast
2:35 PM 33.8 °F 25.8 °F 27.1 °F 77% 29.88 in 10.0 mi West 10.4 mph - N/A   Overcast
2:55 PM 33.4 °F 26.6 °F 26.8 °F 77% 29.88 in 10.0 mi West 8.1 mph - N/A   Overcast
3:15 PM 33.6 °F 26.2 °F 27.3 °F 78% 29.89 in 10.0 mi WNW 9.2 mph 17.3 mph N/A   Overcast
3:35 PM 33.8 °F 27.0 °F 27.5 °F 78% 29.90 in 10.0 mi West 8.1 mph - N/A   Overcast
3:55 PM 33.6 °F 26.8 °F 27.5 °F 78% 29.91 in 10.0 mi WNW 8.1 mph - N/A   Overcast
4:15 PM 33.3 °F 27.9 °F 27.3 °F 79% 29.91 in 10.0 mi West 5.8 mph - N/A   Overcast
4:35 PM 33.3 °F 27.1 °F 27.1 °F 78% 29.91 in 10.0 mi WSW 6.9 mph - N/A   Overcast
4:55 PM 33.3 °F 26.4 °F 27.1 °F 78% 29.92 in 10.0 mi West 8.1 mph - N/A   Overcast
5:15 PM 33.4 °F 29.1 °F 27.3 °F 78% 29.93 in 10.0 mi West 4.6 mph - N/A   Overcast
5:35 PM 33.4 °F 28.1 °F 27.0 °F 77% 29.93 in 10.0 mi West 5.8 mph - N/A   Overcast
5:55 PM 33.8 °F 27.0 °F 27.0 °F 76% 29.95 in 10.0 mi West 8.1 mph - N/A   Overcast
6:15 PM 33.8 °F 29.6 °F 26.8 °F 75% 29.95 in 10.0 mi West 4.6 mph - N/A   Overcast
6:35 PM 33.8 °F 30.8 °F 26.8 °F 75% 29.96 in 10.0 mi West 3.5 mph - N/A   Overcast
6:55 PM 33.8 °F 29.6 °F 27.0 °F 76% 29.95 in 10.0 mi WNW 4.6 mph - N/A   Overcast
7:15 PM 33.8 °F 29.6 °F 26.6 °F 75% 29.96 in 10.0 mi West 4.6 mph - N/A   Overcast
7:35 PM 33.8 °F 28.6 °F 26.4 °F 74% 29.98 in 10.0 mi West 5.8 mph - N/A   Unknown
7:55 PM 33.8 °F 29.6 °F 26.4 °F 74% 29.98 in 10.0 mi WSW 4.6 mph - N/A   Overcast
8:15 PM 33.8 °F 30.8 °F 26.2 °F 74% 29.98 in 10.0 mi WNW 3.5 mph - N/A   Overcast
8:35 PM 33.8 °F 28.6 °F 26.6 °F 75% 29.98 in 10.0 mi WSW 5.8 mph - N/A   Unknown
8:55 PM 33.8 °F 27.7 °F 26.4 °F 74% 29.99 in 10.0 mi West 6.9 mph - N/A   Unknown
9:15 PM 33.4 °F 29.1 °F 26.2 °F 75% 29.99 in 10.0 mi West 4.6 mph - N/A   Unknown
9:35 PM 33.4 °F 29.1 °F 26.4 °F 75% 29.99 in 10.0 mi West 4.6 mph - N/A   Unknown
9:55 PM 33.4 °F 30.4 °F 26.4 °F 75% 29.99 in 10.0 mi WSW 3.5 mph - N/A   Unknown
10:15 PM 33.4 °F 29.1 °F 26.6 °F 76% 29.99 in 10.0 mi SW 4.6 mph - N/A   Unknown
10:35 PM 33.4 °F 29.1 °F 26.4 °F 75% 29.99 in 10.0 mi WSW 4.6 mph - N/A   Unknown
10:55 PM 33.4 °F 29.1 °F 26.6 °F 76% 30.00 in 10.0 mi WSW 4.6 mph - N/A   Unknown
11:15 PM 33.4 °F 26.6 °F 26.6 °F 76% 30.00 in 10.0 mi WSW 8.1 mph - N/A   Unknown
11:35 PM 33.4 °F 27.3 °F 26.1 °F 74% 30.00 in 10.0 mi SW 6.9 mph - N/A   Overcast
11:55 PM 33.1 °F 27.7 °F 25.9 °F 75% 30.00 in 10.0 mi WSW 5.8 mph - N/A   Overcast